Time;durP1;ratioP1;P1;durP2;ratioP2;P2;SDS_P1;SDS_P2;PMS_P1;PMS_P2;Temp;Humidity;BMP_temperature;BMP_pressure;BME280_temperature;BME280_humidity;BME280_pressure;Samples;Min_cycle;Max_cycle;Signal;HPM_P1;HPM_P2
2023/05/09 00:00:09;;;;;;;;;;;;;;;14.43;100.00;101802.06;5036280;28;19925;-52
2023/05/09 00:02:35;;;;;;;;;;;;;;;14.42;100.00;101800.31;5030392;28;19942;-52
2023/05/09 00:05:02;;;;;;;;;;;;;;;14.43;100.00;101803.78;5033260;28;19937;-52
2023/05/09 00:07:28;;;;;;;;;;;;;;;14.41;100.00;101800.28;5032892;28;19929;-49
2023/05/09 00:09:53;;;;;;;;;;;;;;;14.38;100.00;101793.34;5036232;28;19924;-53
2023/05/09 00:12:19;;;;;;;;;;;;;;;14.38;100.00;101785.56;5022858;28;20410;-49
2023/05/09 00:14:44;;;;;;;;;;;;;;;14.39;100.00;101778.69;5023556;28;20454;-52
2023/05/09 00:17:14;;;;;;;;;;;;;;;14.39;100.00;101781.28;5021053;28;19928;-49
2023/05/09 00:19:39;;;;;;;;;;;;;;;14.38;100.00;101785.56;5029374;28;19925;-48
2023/05/09 00:22:05;;;;;;;;;;;;;;;14.37;100.00;101783.81;5037089;28;19928;-49
2023/05/09 00:24:30;;;;;;;;;;;;;;;14.35;100.00;101782.91;5034018;28;20383;-49
2023/05/09 00:26:55;;;;;;;;;;;;;;;14.36;100.00;101783.75;5032220;28;19925;-48
2023/05/09 00:29:20;;;;;;;;;;;;;;;14.36;100.00;101779.47;5035831;28;19921;-50
2023/05/09 00:31:46;;;;;;;;;;;;;;;14.36;100.00;101774.28;5031631;27;19978;-52
2023/05/09 00:34:11;;;;;;;;;;;;;;;14.38;100.00;101779.53;5033944;27;20378;-51
2023/05/09 00:36:36;;;;;;;;;;;;;;;14.38;100.00;101772.63;5037172;27;20291;-51
2023/05/09 00:39:01;;;;;;;;;;;;;;;14.37;100.00;101768.28;5036303;27;19925;-49
2023/05/09 00:41:27;;;;;;;;;;;;;;;14.35;100.00;101769.09;5038030;27;19965;-50
2023/05/09 00:43:52;;;;;;;;;;;;;;;14.34;100.00;101762.16;5034962;27;19928;-52
2023/05/09 00:46:17;;;;;;;;;;;;;;;14.34;100.00;101759.56;5039643;27;19932;-50
2023/05/09 00:48:42;;;;;;;;;;;;;;;14.33;100.00;101758.69;5035454;27;19921;-49
2023/05/09 00:51:08;;;;;;;;;;;;;;;14.34;100.00;101770.78;5030119;27;19966;-51
2023/05/09 00:53:33;;;;;;;;;;;;;;;14.34;100.00;101768.22;5038976;27;19931;-53
2023/05/09 00:55:59;;;;;;;;;;;;;;;14.32;100.00;101764.72;5036556;28;19917;-53
2023/05/09 00:58:24;;;;;;;;;;;;;;;14.34;100.00;101760.44;5034404;27;20307;-52
2023/05/09 01:00:50;;;;;;;;;;;;;;;14.35;100.00;101757.03;5036711;27;20294;-52
2023/05/09 01:03:15;;;;;;;;;;;;;;;14.36;100.00;101753.59;5038265;27;19981;-50
2023/05/09 01:05:51;;;;;;;;;;;;;;;14.34;100.00;101746.63;5028188;27;19936;-52
2023/05/09 01:08:20;;;;;;;;;;;;;;;14.31;100.00;101733.59;5033588;27;19917;-53
2023/05/09 01:10:49;;;;;;;;;;;;;;;14.31;100.00;101738.78;5033850;27;19949;-52
2023/05/09 01:13:22;;;;;;;;;;;;;;;14.31;100.00;101738.78;5030982;27;19948;-51
2023/05/09 01:15:53;;;;;;;;;;;;;;;14.31;100.00;101736.19;5032362;27;19925;-51
2023/05/09 01:18:33;;;;;;;;;;;;;;;14.29;100.00;101728.41;5028753;27;19960;-49
2023/05/09 01:21:07;;;;;;;;;;;;;;;14.30;100.00;101726.69;5029831;27;19925;-51
2023/05/09 01:23:38;;;;;;;;;;;;;;;14.30;100.00;101716.34;5039776;27;20062;-53
2023/05/09 01:26:03;;;;;;;;;;;;;;;14.28;100.00;101710.25;5032460;27;19929;-52
2023/05/09 01:28:29;;;;;;;;;;;;;;;14.23;100.00;101698.06;5021045;28;19973;-51
2023/05/09 01:30:55;;;;;;;;;;;;;;;14.27;100.00;101705.91;5037488;27;19925;-52
2023/05/09 01:33:21;;;;;;;;;;;;;;;14.27;100.00;101700.75;5028990;27;19956;-52
2023/05/09 01:35:50;;;;;;;;;;;;;;;14.25;100.00;101700.69;5039342;27;19924;-51
2023/05/09 01:38:17;;;;;;;;;;;;;;;14.24;100.00;101696.34;5037500;27;19917;-52
2023/05/09 01:40:44;;;;;;;;;;;;;;;14.24;100.00;101696.34;5030609;27;19925;-51
2023/05/09 01:43:11;;;;;;;;;;;;;;;14.20;100.00;101689.38;5033018;27;19925;-50
2023/05/09 01:45:38;;;;;;;;;;;;;;;14.20;100.00;101686.78;5029326;27;19924;-53
2023/05/09 01:48:04;;;;;;;;;;;;;;;14.18;100.00;101680.66;5035783;27;19917;-51
2023/05/09 01:50:30;;;;;;;;;;;;;;;14.16;100.00;101682.34;5027671;27;20291;-49
2023/05/09 01:52:57;;;;;;;;;;;;;;;14.13;100.00;101669.31;5024721;27;19920;-49
2023/05/09 01:55:25;;;;;;;;;;;;;;;14.12;100.00;101673.63;5028381;27;19973;-52
2023/05/09 01:57:52;;;;;;;;;;;;;;;14.13;100.00;101662.44;5037687;27;20264;-48
2023/05/09 02:00:18;;;;;;;;;;;;;;;14.10;100.00;101662.38;5033382;27;19921;-52
2023/05/09 02:02:43;;;;;;;;;;;;;;;14.08;100.00;101666.63;5033817;27;19921;-52
2023/05/09 02:05:10;;;;;;;;;;;;;;;14.06;100.00;101664.84;5035856;27;19931;-51
2023/05/09 02:07:35;;;;;;;;;;;;;;;14.06;100.00;101659.66;5029277;27;19967;-52
2023/05/09 02:10:01;;;;;;;;;;;;;;;14.04;100.00;101656.16;5039011;27;19948;-52
2023/05/09 02:12:26;;;;;;;;;;;;;;;14.02;100.00;101653.56;5037246;27;19923;-50
2023/05/09 02:14:51;;;;;;;;;;;;;;;14.03;100.00;101659.59;5034509;27;19928;-52
2023/05/09 02:17:18;;;;;;;;;;;;;;;14.00;100.00;101664.66;5034792;27;19986;-50
2023/05/09 02:19:43;;;;;;;;;;;;;;;13.97;100.00;101655.13;5032470;27;19994;-52
2023/05/09 02:22:09;;;;;;;;;;;;;;;13.96;100.00;101655.97;5030538;27;19949;-51
2023/05/09 02:24:34;;;;;;;;;;;;;;;13.94;100.00;101662.78;5019545;28;19924;-51
2023/05/09 02:27:01;;;;;;;;;;;;;;;13.92;100.00;101664.47;5031211;28;20012;-52
2023/05/09 02:29:30;;;;;;;;;;;;;;;13.89;100.00;101665.28;5035689;27;19917;-52
2023/05/09 02:31:58;;;;;;;;;;;;;;;13.88;100.00;101671.25;5035693;27;20353;-52
2023/05/09 02:34:23;;;;;;;;;;;;;;;13.86;100.00;101672.06;5034693;27;19924;-52
2023/05/09 02:36:49;;;;;;;;;;;;;;;13.83;100.00;101667.69;5037360;28;19921;-47
2023/05/09 02:39:14;;;;;;;;;;;;;;;13.84;100.00;101673.72;5040125;28;19921;-49
2023/05/09 02:41:46;;;;;;;;;;;;;;;13.81;100.00;101671.06;5038470;27;20274;-50
2023/05/09 02:44:11;;;;;;;;;;;;;;;13.79;100.00;101665.84;5033260;27;20399;-47
2023/05/09 02:46:37;;;;;;;;;;;;;;;13.77;100.00;101664.94;5021051;28;19929;-47
2023/05/09 02:49:02;;;;;;;;;;;;;;;13.75;100.00;101661.41;5030967;27;19927;-48
2023/05/09 02:51:27;;;;;;;;;;;;;;;13.75;100.00;101663.13;5035454;28;20449;-51
2023/05/09 02:53:52;;;;;;;;;;;;;;;13.71;100.00;101656.09;5037161;27;19921;-54
2023/05/09 02:56:18;;;;;;;;;;;;;;;13.68;100.00;101647.44;5035024;27;19932;-52
2023/05/09 02:58:49;;;;;;;;;;;;;;;13.67;100.00;101644.84;5039637;27;19935;-55
2023/05/09 03:01:14;;;;;;;;;;;;;;;13.64;100.00;101630.09;5045472;27;19936;-46
2023/05/09 03:03:40;;;;;;;;;;;;;;;13.64;100.00;101639.56;5033611;27;20287;-49
2023/05/09 03:06:05;;;;;;;;;;;;;;;13.63;100.00;101635.22;5026817;27;19948;-50
2023/05/09 03:08:30;;;;;;;;;;;;;;;13.61;100.00;101623.97;5027711;27;19930;-47
2023/05/09 03:10:56;;;;;;;;;;;;;;;13.60;100.00;101619.66;5024950;28;20053;-50
2023/05/09 03:13:21;;;;;;;;;;;;;;;13.59;100.00;101615.28;5030842;27;20021;-47
2023/05/09 03:15:46;;;;;;;;;;;;;;;13.56;100.00;101625.56;5022240;27;19981;-46
2023/05/09 03:18:12;;;;;;;;;;;;;;;13.55;100.00;101626.41;5026350;27;20021;-46
2023/05/09 03:20:37;;;;;;;;;;;;;;;13.53;100.00;101616.03;5022885;27;20008;-47
2023/05/09 03:23:02;;;;;;;;;;;;;;;13.54;100.00;101622.06;5033777;28;20368;-47
2023/05/09 03:25:28;;;;;;;;;;;;;;;13.52;100.00;101614.25;5007274;28;19933;-47
2023/05/09 03:27:53;;;;;;;;;;;;;;;13.52;100.00;101619.41;5025279;28;19933;-45
2023/05/09 03:30:18;;;;;;;;;;;;;;;13.51;100.00;101617.66;5026242;28;19993;-45
2023/05/09 03:32:44;;;;;;;;;;;;;;;13.51;100.00;101606.47;5023472;28;19921;-50
2023/05/09 03:35:09;;;;;;;;;;;;;;;13.51;100.00;101612.50;5022735;28;19929;-46
2023/05/09 03:37:35;;;;;;;;;;;;;;;13.51;100.00;101611.63;5023960;28;19935;-47
2023/05/09 03:40:00;;;;;;;;;;;;;;;13.51;100.00;101603.88;5031026;28;20624;-47
2023/05/09 03:42:25;;;;;;;;;;;;;;;13.50;100.00;101607.31;5028706;28;19937;-44
2023/05/09 03:44:51;;;;;;;;;;;;;;;13.48;100.00;101604.69;5024659;28;19927;-46
2023/05/09 03:47:16;;;;;;;;;;;;;;;13.48;100.00;101596.94;5023148;28;19928;-46
2023/05/09 03:49:42;;;;;;;;;;;;;;;13.50;100.00;101599.56;5024861;28;19928;-46
2023/05/09 03:52:07;;;;;;;;;;;;;;;13.50;100.00;101595.25;5025092;28;20001;-46
2023/05/09 03:54:32;;;;;;;;;;;;;;;13.51;100.00;101590.97;5025662;28;20019;-46
2023/05/09 03:56:57;;;;;;;;;;;;;;;13.51;100.00;101594.41;5024019;28;20397;-46
2023/05/09 03:59:23;;;;;;;;;;;;;;;13.50;100.00;101597.84;4998482;28;19925;-45
2023/05/09 04:01:48;;;;;;;;;;;;;;;13.50;100.00;101589.22;5016204;28;19924;-46
2023/05/09 04:04:13;;;;;;;;;;;;;;;13.49;100.00;101583.19;5004720;28;19929;-46
2023/05/09 04:06:38;;;;;;;;;;;;;;;13.48;100.00;101583.16;5005236;28;20323;-46
2023/05/09 04:09:04;;;;;;;;;;;;;;;13.46;100.00;101577.03;5008031;28;19925;-46
2023/05/09 04:11:31;;;;;;;;;;;;;;;13.46;100.00;101575.31;5007230;28;20220;-46
2023/05/09 04:13:56;;;;;;;;;;;;;;;13.45;100.00;101573.59;5004321;28;20035;-45
2023/05/09 04:16:21;;;;;;;;;;;;;;;13.46;100.00;101572.75;5009398;28;20043;-46
2023/05/09 04:18:47;;;;;;;;;;;;;;;13.45;100.00;101560.66;5005030;28;19925;-46
2023/05/09 04:21:12;;;;;;;;;;;;;;;13.45;100.00;101559.78;5016252;28;19981;-46
2023/05/09 04:23:38;;;;;;;;;;;;;;;13.44;100.00;101558.91;5005480;28;19964;-46
2023/05/09 04:26:03;;;;;;;;;;;;;;;13.44;100.00;101560.63;5007290;28;19934;-45
2023/05/09 04:28:28;;;;;;;;;;;;;;;13.43;100.00;101553.72;5009782;28;19978;-45
2023/05/09 04:30:54;;;;;;;;;;;;;;;13.44;100.00;101553.75;5001491;28;19925;-45
2023/05/09 04:33:20;;;;;;;;;;;;;;;13.43;100.00;101559.75;4999089;28;19974;-45
2023/05/09 04:35:45;;;;;;;;;;;;;;;13.44;100.00;101560.63;5002750;28;19929;-46
2023/05/09 04:38:11;;;;;;;;;;;;;;;13.46;100.00;101564.13;5006491;28;19934;-45
2023/05/09 04:40:36;;;;;;;;;;;;;;;13.47;100.00;101553.84;5008980;28;20803;-46
2023/05/09 04:43:03;;;;;;;;;;;;;;;13.49;100.00;101553.88;5008090;28;20691;-46
2023/05/09 04:45:28;;;;;;;;;;;;;;;13.51;100.00;101552.22;5005049;28;19926;-47
2023/05/09 04:47:53;;;;;;;;;;;;;;;13.54;100.00;101550.59;5007743;28;21914;-48
2023/05/09 04:50:18;;;;;;;;;;;;;;;13.59;100.00;101553.28;5004924;28;20319;-46
2023/05/09 04:52:44;;;;;;;;;;;;;;;13.61;100.00;101542.16;5009412;28;19929;-47
2023/05/09 04:55:09;;;;;;;;;;;;;;;13.64;100.00;101544.81;5006282;28;20379;-47
2023/05/09 04:57:34;;;;;;;;;;;;;;;13.68;100.00;101540.63;5012285;28;20008;-46
2023/05/09 04:59:59;;;;;;;;;;;;;;;13.73;100.00;101536.44;5017848;27;19935;-46
2023/05/09 05:02:25;;;;;;;;;;;;;;;13.77;100.00;101533.13;5012859;27;19927;-47
2023/05/09 05:04:50;;;;;;;;;;;;;;;13.83;100.00;101535.84;5034040;27;20426;-49
2023/05/09 05:07:16;;;;;;;;;;;;;;;13.89;100.00;101533.41;5029707;27;20364;-46
2023/05/09 05:09:41;;;;;;;;;;;;;;;13.92;100.00;101520.56;5027633;27;19931;-49
2023/05/09 05:12:07;;;;;;;;;;;;;;;13.96;100.00;101516.34;5024891;27;19929;-46
2023/05/09 05:14:33;;;;;;;;;;;;;;;14.00;100.00;101506.94;5020413;27;21913;-45
2023/05/09 05:16:58;;;;;;;;;;;;;;;14.04;100.00;101511.34;5017996;27;19927;-48
2023/05/09 05:19:23;;;;;;;;;;;;;;;14.06;100.00;101494.16;5020064;27;19929;-50
2023/05/09 05:21:48;;;;;;;;;;;;;;;14.09;100.00;101500.28;5022158;27;19995;-47
2023/05/09 05:24:13;;;;;;;;;;;;;;;14.10;100.00;101498.56;5019825;27;19936;-51
2023/05/09 05:26:39;;;;;;;;;;;;;;;14.11;100.00;101487.38;5019447;27;19960;-45
2023/05/09 05:29:04;;;;;;;;;;;;;;;14.13;100.00;101480.53;5019409;27;20399;-47
2023/05/09 05:31:30;;;;;;;;;;;;;;;14.16;100.00;101489.25;5020549;27;20889;-47
2023/05/09 05:33:55;;;;;;;;;;;;;;;14.20;100.00;101485.03;5022980;27;19931;-47
2023/05/09 05:36:20;;;;;;;;;;;;;;;14.22;100.00;101486.81;5003422;27;19925;-46
2023/05/09 05:38:45;;;;;;;;;;;;;;;14.29;100.00;101480.03;5008525;27;19929;-45
2023/05/09 05:41:11;;;;;;;;;;;;;;;14.37;100.00;101477.63;5019958;27;19929;-47
2023/05/09 05:43:36;;;;;;;;;;;;;;;14.43;100.00;101478.63;5020239;27;19936;-46
2023/05/09 05:46:01;;;;;;;;;;;;;;;14.51;100.00;101483.16;5020497;27;20815;-47
2023/05/09 05:48:27;;;;;;;;;;;;;;;14.56;100.00;101477.25;5022012;27;19968;-48
2023/05/09 05:50:52;;;;;;;;;;;;;;;14.63;100.00;101475.66;5023688;27;19961;-48
2023/05/09 05:53:17;;;;;;;;;;;;;;;14.70;100.00;101477.53;5018007;27;20564;-47
2023/05/09 05:55:44;;;;;;;;;;;;;;;14.77;100.00;101476.81;5017929;27;19932;-48
2023/05/09 05:58:10;;;;;;;;;;;;;;;14.81;100.00;101467.41;5020631;27;19948;-46
2023/05/09 06:00:35;;;;;;;;;;;;;;;14.84;100.00;101464.84;5025206;27;20404;-46
2023/05/09 06:03:00;;;;;;;;;;;;;;;14.90;100.00;101462.41;5025283;27;20013;-48
2023/05/09 06:05:25;;;;;;;;;;;;;;;14.94;100.00;101459.91;5026904;27;19932;-46
2023/05/09 06:07:51;;;;;;;;;;;;;;;15.03;100.00;101460.06;5023338;28;19990;-49
2023/05/09 06:10:16;;;;;;;;;;;;;;;15.06;100.00;101463.59;5022817;28;19928;-49
2023/05/09 06:12:41;;;;;;;;;;;;;;;15.06;100.00;101458.41;5020641;27;19925;-50
2023/05/09 06:15:06;;;;;;;;;;;;;;;15.10;100.00;101444.63;5031121;27;20004;-50
2023/05/09 06:17:32;;;;;;;;;;;;;;;15.12;100.00;101437.78;5029189;27;19927;-50
2023/05/09 06:19:57;;;;;;;;;;;;;;;15.14;100.00;101451.63;5022905;27;20400;-46
2023/05/09 06:22:22;;;;;;;;;;;;;;;15.14;100.00;101436.97;5021369;27;19921;-46
2023/05/09 06:24:48;;;;;;;;;;;;;;;15.13;100.00;101435.22;5023943;28;19929;-48
2023/05/09 06:27:13;;;;;;;;;;;;;;;15.16;100.00;101442.16;5026167;27;19936;-48
2023/05/09 06:29:38;;;;;;;;;;;;;;;15.18;100.00;101441.38;5022371;27;19929;-46
2023/05/09 06:32:04;;;;;;;;;;;;;;;15.19;100.00;101437.06;5021888;28;20462;-48
2023/05/09 06:34:29;;;;;;;;;;;;;;;15.22;100.00;101444.88;5026131;27;19929;-50
2023/05/09 06:36:54;;;;;;;;;;;;;;;15.24;100.00;101438.03;5017615;28;19921;-46
2023/05/09 06:39:19;;;;;;;;;;;;;;;15.26;100.00;101438.91;5023505;28;19933;-48
2023/05/09 06:41:45;;;;;;;;;;;;;;;15.28;100.00;101434.63;5020795;28;19927;-47
2023/05/09 06:44:10;;;;;;;;;;;;;;;15.27;100.00;101433.75;5021739;27;19921;-47
2023/05/09 06:46:35;;;;;;;;;;;;;;;15.27;100.00;101423.38;5023363;27;20661;-47
2023/05/09 06:49:01;;;;;;;;;;;;;;;15.31;100.00;101424.31;5022034;27;20280;-47
2023/05/09 06:51:26;;;;;;;;;;;;;;;15.34;100.00;101429.53;5040677;27;20011;-46
2023/05/09 06:53:51;;;;;;;;;;;;;;;15.37;100.00;101419.25;5021139;28;19917;-47
2023/05/09 06:56:18;;;;;;;;;;;;;;;15.44;100.00;101428.00;5023658;28;19921;-46
2023/05/09 06:58:44;;;;;;;;;;;;;;;15.49;100.00;101418.59;5018552;28;19928;-50
2023/05/09 07:01:09;;;;;;;;;;;;;;;15.56;100.00;101417.84;5014199;28;19925;-48
2023/05/09 07:03:34;;;;;;;;;;;;;;;15.66;100.00;101416.31;5015825;28;20008;-51
2023/05/09 07:06:00;;;;;;;;;;;;;;;15.73;100.00;101405.19;5038302;28;19928;-47
2023/05/09 07:08:25;;;;;;;;;;;;;;;15.79;100.00;101406.16;5023624;28;19928;-49
2023/05/09 07:10:51;;;;;;;;;;;;;;;15.80;100.00;101404.41;5020385;28;19936;-49
2023/05/09 07:13:16;;;;;;;;;;;;;;;15.83;100.00;101404.44;5016036;28;19929;-46
2023/05/09 07:15:41;;;;;;;;;;;;;;;15.86;100.00;101404.50;5012427;28;19931;-47
2023/05/09 07:18:07;;;;;;;;;;;;;;;15.90;100.00;101400.25;5008291;28;19921;-48
2023/05/09 07:20:32;;;;;;;;;;;;;;;15.94;100.00;101389.94;5087086;27;19928;-47
2023/05/09 07:22:57;;;;;;;;;;;;;;;15.97;100.00;101391.72;5011681;28;20654;-48
2023/05/09 07:25:22;;;;;;;;;;;;;;;15.93;100.00;101388.19;5021164;28;19927;-48
2023/05/09 07:27:48;;;;;;;;;;;;;;;15.90;100.00;101397.66;5024351;28;19930;-46
2023/05/09 07:30:13;;;;;;;;;;;;;;;15.83;100.00;101388.91;5029404;28;19922;-46
2023/05/09 07:32:38;;;;;;;;;;;;;;;15.78;100.00;101387.97;5033249;28;19921;-48
2023/05/09 07:35:04;;;;;;;;;;;;;;;15.73;100.00;101387.91;5029159;28;19928;-49
2023/05/09 07:37:30;;;;;;;;;;;;;;;15.68;100.00;101392.13;5027724;28;20315;-47
2023/05/09 07:39:55;;;;;;;;;;;;;;;15.69;100.00;101385.22;5028521;28;19921;-47
2023/05/09 07:42:21;;;;;;;;;;;;;;;15.57;100.00;101389.34;5014243;28;20314;-45
2023/05/09 07:44:46;;;;;;;;;;;;;;;15.51;100.00;101388.38;5028281;27;19917;-45
2023/05/09 07:47:11;;;;;;;;;;;;;;;15.52;100.00;101392.69;5035144;28;19925;-46
2023/05/09 07:49:36;;;;;;;;;;;;;;;15.34;100.00;101385.50;5026868;28;19929;-46
2023/05/09 07:52:02;;;;;;;;;;;;;;;15.29;100.00;101390.63;5026777;27;19921;-48
2023/05/09 07:54:27;;;;;;;;;;;;;;;15.24;100.00;101387.06;5024176;27;19921;-46
2023/05/09 07:56:53;;;;;;;;;;;;;;;15.15;100.00;101381.72;5032674;27;19966;-45
2023/05/09 07:59:18;;;;;;;;;;;;;;;15.11;100.00;101379.06;5027296;27;19985;-47
2023/05/09 08:01:44;;;;;;;;;;;;;;;15.12;100.00;101380.81;5025787;28;19920;-45
2023/05/09 08:04:09;;;;;;;;;;;;;;;15.08;100.00;101373.81;5032739;27;19929;-46
2023/05/09 08:06:35;;;;;;;;;;;;;;;15.07;100.00;101366.91;5037681;27;19993;-49
2023/05/09 08:09:00;;;;;;;;;;;;;;;15.05;100.00;101378.97;5036796;27;20345;-46
2023/05/09 08:11:25;;;;;;;;;;;;;;;14.97;100.00;101363.25;5032260;27;19924;-47
2023/05/09 08:13:50;;;;;;;;;;;;;;;14.92;100.00;101359.72;5034133;27;19923;-46
2023/05/09 08:16:16;;;;;;;;;;;;;;;14.86;100.00;101354.41;5029000;28;20332;-46
2023/05/09 08:18:41;;;;;;;;;;;;;;;14.86;100.00;101362.19;5030086;27;19921;-46
2023/05/09 08:21:07;;;;;;;;;;;;;;;14.81;100.00;101356.09;5041419;27;20435;-45
2023/05/09 08:23:32;;;;;;;;;;;;;;;14.83;100.00;101344.03;5020710;27;19951;-47
2023/05/09 08:25:57;;;;;;;;;;;;;;;14.85;100.00;101340.59;5008228;27;19986;-46
2023/05/09 08:28:23;;;;;;;;;;;;;;;14.86;100.00;101344.06;5018981;27;20328;-46
2023/05/09 08:30:49;;;;;;;;;;;;;;;14.90;100.00;101333.78;5032334;27;20012;-45
2023/05/09 08:33:15;;;;;;;;;;;;;;;14.95;100.00;101342.53;5019606;27;19921;-45
2023/05/09 08:35:40;;;;;;;;;;;;;;;14.92;100.00;101333.81;5020351;28;19929;-47
2023/05/09 08:38:05;;;;;;;;;;;;;;;14.97;100.00;101334.78;5025911;27;20028;-46
2023/05/09 08:40:34;;;;;;;;;;;;;;;15.07;100.00;101328.91;5019899;28;21582;-46
2023/05/09 08:42:59;;;;;;;;;;;;;;;15.19;100.00;101323.94;5019953;28;19929;-46
2023/05/09 08:45:28;;;;;;;;;;;;;;;15.30;100.00;101329.31;5020493;28;19921;-46
2023/05/09 08:47:54;;;;;;;;;;;;;;;15.34;100.00;101322.44;5023640;27;19976;-47
2023/05/09 08:50:20;;;;;;;;;;;;;;;15.34;100.00;101312.06;5022240;28;20398;-50
2023/05/09 08:52:46;;;;;;;;;;;;;;;15.36;100.00;101311.25;5027557;27;19928;-44
2023/05/09 08:55:11;;;;;;;;;;;;;;;15.43;100.00;101317.41;5022996;27;19921;-46
2023/05/09 08:57:36;;;;;;;;;;;;;;;15.45;100.00;101313.97;5017958;28;19973;-46
2023/05/09 09:00:05;;;;;;;;;;;;;;;15.49;100.00;101308.00;5027922;27;19940;-45
2023/05/09 09:02:31;;;;;;;;;;;;;;;15.50;100.00;101303.69;5020359;27;19964;-45
2023/05/09 09:04:56;;;;;;;;;;;;;;;15.48;100.00;101302.81;5022480;27;19997;-46
2023/05/09 09:07:22;;;;;;;;;;;;;;;15.49;100.00;101302.81;5023065;28;20366;-46
2023/05/09 09:09:48;;;;;;;;;;;;;;;15.51;100.00;101301.13;5022695;28;19948;-47
2023/05/09 09:12:14;;;;;;;;;;;;;;;15.54;100.00;101300.31;5023428;27;20883;-45
2023/05/09 09:14:41;;;;;;;;;;;;;;;15.52;100.00;101302.84;5019546;27;19932;-46
2023/05/09 09:17:07;;;;;;;;;;;;;;;15.52;100.00;101299.41;5026421;27;19917;-49
2023/05/09 09:19:34;;;;;;;;;;;;;;;15.51;100.00;101298.53;5021985;28;19928;-49
2023/05/09 09:22:03;;;;;;;;;;;;;;;15.48;100.00;101293.31;5025517;27;20446;-47
2023/05/09 09:24:29;;;;;;;;;;;;;;;15.43;100.00;101287.19;5025561;28;20331;-47
2023/05/09 09:26:55;;;;;;;;;;;;;;;15.43;100.00;101287.19;5021549;27;19925;-48
2023/05/09 09:29:21;;;;;;;;;;;;;;;15.45;100.00;101276.84;5030342;27;19947;-46
2023/05/09 09:31:50;;;;;;;;;;;;;;;15.46;100.00;101289.81;5026004;27;20303;-45
2023/05/09 09:34:19;;;;;;;;;;;;;;;15.42;100.00;101293.22;5018265;27;19917;-46
2023/05/09 09:36:45;;;;;;;;;;;;;;;15.33;100.00;101285.28;5038517;27;19961;-49
2023/05/09 09:39:11;;;;;;;;;;;;;;;15.26;100.00;101281.75;5030786;27;20316;-45
2023/05/09 09:41:37;;;;;;;;;;;;;;;15.26;100.00;101281.75;5024472;27;20424;-45
2023/05/09 09:44:06;;;;;;;;;;;;;;;15.26;100.00;101280.88;5034844;27;19921;-49
2023/05/09 09:46:49;;;;;;;;;;;;;;;15.20;100.00;101275.59;5017554;28;19921;-47
2023/05/09 09:49:15;;;;;;;;;;;;;;;15.14;100.00;101283.28;5023730;28;19925;-47
2023/05/09 09:51:40;;;;;;;;;;;;;;;15.14;100.00;101268.59;5021112;28;20389;-47
2023/05/09 09:54:07;;;;;;;;;;;;;;;15.24;100.00;101267.03;5015756;28;19921;-47
2023/05/09 09:56:49;;;;;;;;;;;;;;;15.29;100.00;101267.97;5019111;28;19917;-46
2023/05/09 09:59:19;;;;;;;;;;;;;;;15.31;100.00;101263.69;5020825;28;20294;-49
2023/05/09 10:01:53;;;;;;;;;;;;;;;15.35;100.00;101259.41;5025736;27;19925;-47
2023/05/09 10:04:18;;;;;;;;;;;;;;;15.37;100.00;101258.59;5027519;28;20392;-49
2023/05/09 10:06:50;;;;;;;;;;;;;;;15.39;100.00;101256.00;5017398;28;19931;-46
2023/05/09 10:09:16;;;;;;;;;;;;;;;15.44;100.00;101255.22;5019100;28;19983;-48
2023/05/09 10:11:41;;;;;;;;;;;;;;;15.38;100.00;101244.78;5020490;27;20013;-48
2023/05/09 10:14:07;;;;;;;;;;;;;;;15.40;100.00;101247.38;5017437;28;20300;-47
2023/05/09 10:16:32;;;;;;;;;;;;;;;15.48;100.00;101250.97;5016758;28;20007;-46
2023/05/09 10:18:57;;;;;;;;;;;;;;;15.45;100.00;101249.19;5022099;27;19956;-47
2023/05/09 10:21:23;;;;;;;;;;;;;;;15.43;100.00;101247.44;5015994;28;20419;-47
2023/05/09 10:23:51;;;;;;;;;;;;;;;15.41;100.00;101243.94;5028806;28;19921;-48
2023/05/09 10:26:27;;;;;;;;;;;;;;;15.38;100.00;101244.78;5019514;27;19925;-47
2023/05/09 10:28:54;;;;;;;;;;;;;;;15.29;100.00;101235.16;5019203;27;19956;-46
2023/05/09 10:31:26;;;;;;;;;;;;;;;15.26;100.00;101242.88;5020516;27;19970;-48
2023/05/09 10:33:52;;;;;;;;;;;;;;;15.25;100.00;101235.09;5019190;27;19929;-47
2023/05/09 10:36:19;;;;;;;;;;;;;;;15.24;100.00;101223.84;5023510;27;19921;-47
2023/05/09 10:38:45;;;;;;;;;;;;;;;15.25;100.00;101225.59;5018494;27;19932;-48
2023/05/09 10:41:11;;;;;;;;;;;;;;;15.26;100.00;101227.34;5031014;27;19940;-47
2023/05/09 10:43:36;;;;;;;;;;;;;;;15.26;100.00;101221.28;5019244;28;19925;-46
2023/05/09 10:46:03;;;;;;;;;;;;;;;15.23;100.00;101226.44;5027554;28;20034;-46
2023/05/09 10:48:29;;;;;;;;;;;;;;;15.18;100.00;101213.41;5014271;27;20020;-47
2023/05/09 10:50:55;;;;;;;;;;;;;;;15.17;100.00;101213.41;5021066;28;19966;-48
2023/05/09 10:53:23;;;;;;;;;;;;;;;15.12;100.00;101202.09;5027176;28;19929;-48
2023/05/09 10:55:56;;;;;;;;;;;;;;;15.11;100.00;101208.13;5019147;28;20034;-45
2023/05/09 10:58:21;;;;;;;;;;;;;;;15.07;100.00;101201.16;5017432;28;20940;-45
2023/05/09 11:00:48;;;;;;;;;;;;;;;15.03;100.00;101195.91;5020174;28;20280;-48
2023/05/09 11:03:13;;;;;;;;;;;;;;;15.02;100.00;101201.94;5018426;27;19917;-46
2023/05/09 11:05:39;;;;;;;;;;;;;;;15.01;100.00;101201.91;5019669;27;19917;-50
2023/05/09 11:08:20;;;;;;;;;;;;;;;15.03;100.00;101195.03;5019413;28;20402;-48
2023/05/09 11:10:45;;;;;;;;;;;;;;;15.06;100.00;101192.50;5020028;28;19929;-48
2023/05/09 11:13:11;;;;;;;;;;;;;;;15.09;100.00;101189.06;5019951;27;19930;-49
2023/05/09 11:15:48;;;;;;;;;;;;;;;15.02;100.00;101188.97;5099313;27;19996;-46
2023/05/09 11:18:14;;;;;;;;;;;;;;;14.98;100.00;101184.59;5022526;28;19921;-45
2023/05/09 11:20:43;;;;;;;;;;;;;;;14.78;100.00;101185.16;5020225;27;19948;-45
2023/05/09 11:23:10;;;;;;;;;;;;;;;14.71;100.00;101186.78;5018741;28;19925;-47
2023/05/09 11:25:37;;;;;;;;;;;;;;;14.62;100.00;101184.00;5023639;28;20008;-48
2023/05/09 11:28:02;;;;;;;;;;;;;;;14.61;100.00;101184.88;5021724;28;19937;-49
2023/05/09 11:30:36;;;;;;;;;;;;;;;14.58;100.00;101177.94;5021287;28;19924;-47
2023/05/09 11:33:05;;;;;;;;;;;;;;;14.54;100.00;101173.53;5019879;28;19925;-50
2023/05/09 11:35:32;;;;;;;;;;;;;;;14.52;100.00;101169.19;5020710;28;19968;-49
2023/05/09 11:38:04;;;;;;;;;;;;;;;14.47;100.00;101172.56;5020289;28;19921;-50
2023/05/09 11:40:30;;;;;;;;;;;;;;;14.43;100.00;101169.88;5020119;28;19930;-49
2023/05/09 11:42:56;;;;;;;;;;;;;;;14.36;100.00;101166.31;5017903;28;19921;-49
2023/05/09 11:45:23;;;;;;;;;;;;;;;14.32;100.00;101169.69;5019330;28;20278;-49
2023/05/09 11:47:49;;;;;;;;;;;;;;;14.35;100.00;101161.13;5020623;28;20330;-49
2023/05/09 11:50:15;;;;;;;;;;;;;;;14.33;100.00;101163.69;5018520;28;20380;-51
2023/05/09 11:52:41;;;;;;;;;;;;;;;14.17;100.00;101157.34;5018186;28;20388;-49
2023/05/09 11:55:10;;;;;;;;;;;;;;;14.10;100.00;101159.81;5017560;28;19957;-48
2023/05/09 11:57:38;;;;;;;;;;;;;;;14.08;100.00;101153.75;5016573;28;19924;-49
2023/05/09 12:00:05;;;;;;;;;;;;;;;14.12;100.00;101153.81;5023565;28;20419;-49
2023/05/09 12:02:30;;;;;;;;;;;;;;;14.07;100.00;101149.38;5020201;28;19925;-46
2023/05/09 12:04:55;;;;;;;;;;;;;;;14.10;100.00;101139.13;5019233;28;20015;-48
2023/05/09 12:07:21;;;;;;;;;;;;;;;14.14;100.00;101139.22;5019407;28;19929;-47
2023/05/09 12:09:48;;;;;;;;;;;;;;;14.22;100.00;101139.34;5022088;28;19932;-50
2023/05/09 12:12:13;;;;;;;;;;;;;;;14.32;100.00;101136.06;5020462;28;19917;-50
2023/05/09 12:14:39;;;;;;;;;;;;;;;14.47;100.00;101136.34;5021271;28;20354;-51
2023/05/09 12:17:08;;;;;;;;;;;;;;;14.53;100.00;101133.00;5023423;28;19944;-48
2023/05/09 12:19:33;;;;;;;;;;;;;;;14.59;100.00;101132.22;5019954;28;19924;-50
2023/05/09 12:22:00;;;;;;;;;;;;;;;14.59;100.00;101134.81;5019804;28;19921;-50